sensor_id;sensor_type;location;lat;lon;timestamp;P1;durP1;ratioP1;P2;durP2;ratioP2
24713;SDS011;12820;51.580;5.010;2023-11-21T00:02:55;35.00;;;16.52;;
24713;SDS011;12820;51.580;5.010;2023-11-21T00:07:57;30.20;;;17.02;;
24713;SDS011;12820;51.580;5.010;2023-11-21T00:12:59;33.10;;;17.50;;
24713;SDS011;12820;51.580;5.010;2023-11-21T00:18:01;34.28;;;17.30;;
24713;SDS011;12820;51.580;5.010;2023-11-21T00:23:04;37.55;;;17.55;;
24713;SDS011;12820;51.580;5.010;2023-11-21T00:28:06;34.90;;;17.02;;
24713;SDS011;12820;51.580;5.010;2023-11-21T00:33:08;35.10;;;17.60;;
24713;SDS011;12820;51.580;5.010;2023-11-21T00:38:11;34.10;;;17.02;;
24713;SDS011;12820;51.580;5.010;2023-11-21T00:43:13;36.45;;;17.20;;
24713;SDS011;12820;51.580;5.010;2023-11-21T00:48:15;36.20;;;17.20;;
24713;SDS011;12820;51.580;5.010;2023-11-21T00:53:17;39.15;;;17.58;;
24713;SDS011;12820;51.580;5.010;2023-11-21T00:58:19;48.63;;;19.30;;
24713;SDS011;12820;51.580;5.010;2023-11-21T01:03:21;81.55;;;20.48;;
24713;SDS011;12820;51.580;5.010;2023-11-21T01:08:24;62.70;;;21.52;;
24713;SDS011;12820;51.580;5.010;2023-11-21T01:13:26;119.82;;;21.52;;
24713;SDS011;12820;51.580;5.010;2023-11-21T01:18:29;120.60;;;22.25;;
24713;SDS011;12820;51.580;5.010;2023-11-21T01:23:31;70.68;;;20.90;;
24713;SDS011;12820;51.580;5.010;2023-11-21T01:28:33;82.82;;;19.88;;
24713;SDS011;12820;51.580;5.010;2023-11-21T01:33:36;59.40;;;18.88;;
24713;SDS011;12820;51.580;5.010;2023-11-21T01:38:38;49.08;;;18.95;;
24713;SDS011;12820;51.580;5.010;2023-11-21T01:43:41;41.30;;;18.20;;
24713;SDS011;12820;51.580;5.010;2023-11-21T01:48:43;43.67;;;17.33;;
24713;SDS011;12820;51.580;5.010;2023-11-21T01:53:47;38.63;;;17.27;;
24713;SDS011;12820;51.580;5.010;2023-11-21T01:58:50;36.33;;;16.77;;
24713;SDS011;12820;51.580;5.010;2023-11-21T02:03:53;34.13;;;17.67;;
24713;SDS011;12820;51.580;5.010;2023-11-21T02:08:55;49.45;;;17.60;;
24713;SDS011;12820;51.580;5.010;2023-11-21T02:13:58;33.22;;;16.92;;
24713;SDS011;12820;51.580;5.010;2023-11-21T02:19:02;38.92;;;16.98;;
24713;SDS011;12820;51.580;5.010;2023-11-21T02:24:06;43.78;;;16.52;;
24713;SDS011;12820;51.580;5.010;2023-11-21T02:29:09;33.72;;;17.33;;
24713;SDS011;12820;51.580;5.010;2023-11-21T02:34:14;28.90;;;17.00;;
24713;SDS011;12820;51.580;5.010;2023-11-21T02:39:17;28.27;;;16.90;;
24713;SDS011;12820;51.580;5.010;2023-11-21T02:44:20;28.20;;;16.23;;
24713;SDS011;12820;51.580;5.010;2023-11-21T02:49:22;25.95;;;16.75;;
24713;SDS011;12820;51.580;5.010;2023-11-21T02:54:24;26.58;;;16.02;;
24713;SDS011;12820;51.580;5.010;2023-11-21T02:59:26;24.58;;;13.75;;
24713;SDS011;12820;51.580;5.010;2023-11-21T03:04:28;30.10;;;17.63;;
24713;SDS011;12820;51.580;5.010;2023-11-21T03:09:30;27.85;;;18.10;;
24713;SDS011;12820;51.580;5.010;2023-11-21T03:14:32;28.17;;;18.10;;
24713;SDS011;12820;51.580;5.010;2023-11-21T03:19:35;28.60;;;17.50;;
24713;SDS011;12820;51.580;5.010;2023-11-21T03:24:37;28.17;;;17.50;;
24713;SDS011;12820;51.580;5.010;2023-11-21T03:29:40;25.92;;;15.82;;
24713;SDS011;12820;51.580;5.010;2023-11-21T03:40:14;31.17;;;18.20;;
24713;SDS011;12820;51.580;5.010;2023-11-21T03:45:16;28.80;;;18.88;;
24713;SDS011;12820;51.580;5.010;2023-11-21T03:50:19;31.27;;;18.70;;
24713;SDS011;12820;51.580;5.010;2023-11-21T03:55:21;29.10;;;17.73;;
24713;SDS011;12820;51.580;5.010;2023-11-21T04:00:23;25.35;;;16.90;;
24713;SDS011;12820;51.580;5.010;2023-11-21T04:05:26;30.23;;;18.38;;
24713;SDS011;12820;51.580;5.010;2023-11-21T04:10:28;27.00;;;17.33;;
24713;SDS011;12820;51.580;5.010;2023-11-21T04:15:30;32.05;;;17.98;;
24713;SDS011;12820;51.580;5.010;2023-11-21T04:20:32;30.90;;;18.33;;
24713;SDS011;12820;51.580;5.010;2023-11-21T04:25:35;38.33;;;18.98;;
24713;SDS011;12820;51.580;5.010;2023-11-21T04:30:37;41.13;;;19.80;;
24713;SDS011;12820;51.580;5.010;2023-11-21T04:35:41;45.33;;;20.40;;
24713;SDS011;12820;51.580;5.010;2023-11-21T04:40:43;50.97;;;19.85;;
24713;SDS011;12820;51.580;5.010;2023-11-21T04:45:46;50.53;;;20.70;;
24713;SDS011;12820;51.580;5.010;2023-11-21T04:50:48;48.53;;;20.42;;
24713;SDS011;12820;51.580;5.010;2023-11-21T04:55:50;40.67;;;19.73;;
24713;SDS011;12820;51.580;5.010;2023-11-21T05:00:52;46.67;;;20.63;;
24713;SDS011;12820;51.580;5.010;2023-11-21T05:05:54;44.05;;;20.02;;
24713;SDS011;12820;51.580;5.010;2023-11-21T05:10:57;48.80;;;19.35;;
24713;SDS011;12820;51.580;5.010;2023-11-21T05:15:59;42.53;;;20.48;;
24713;SDS011;12820;51.580;5.010;2023-11-21T05:21:01;49.05;;;20.20;;
24713;SDS011;12820;51.580;5.010;2023-11-21T05:26:04;44.42;;;19.38;;
24713;SDS011;12820;51.580;5.010;2023-11-21T05:31:06;46.80;;;19.08;;
24713;SDS011;12820;51.580;5.010;2023-11-21T05:36:17;43.72;;;19.40;;
24713;SDS011;12820;51.580;5.010;2023-11-21T05:41:20;44.53;;;19.30;;
24713;SDS011;12820;51.580;5.010;2023-11-21T05:46:22;36.65;;;18.98;;
24713;SDS011;12820;51.580;5.010;2023-11-21T05:51:24;39.38;;;20.00;;
24713;SDS011;12820;51.580;5.010;2023-11-21T05:56:26;49.80;;;20.40;;
24713;SDS011;12820;51.580;5.010;2023-11-21T06:01:29;37.53;;;19.52;;
24713;SDS011;12820;51.580;5.010;2023-11-21T06:06:31;43.88;;;19.05;;
24713;SDS011;12820;51.580;5.010;2023-11-21T06:11:33;41.60;;;18.58;;
24713;SDS011;12820;51.580;5.010;2023-11-21T06:16:35;42.25;;;19.00;;
24713;SDS011;12820;51.580;5.010;2023-11-21T06:21:37;41.78;;;19.48;;
24713;SDS011;12820;51.580;5.010;2023-11-21T06:26:40;42.15;;;19.17;;
24713;SDS011;12820;51.580;5.010;2023-11-21T06:31:43;44.47;;;18.58;;
24713;SDS011;12820;51.580;5.010;2023-11-21T06:36:45;39.90;;;17.92;;
24713;SDS011;12820;51.580;5.010;2023-11-21T06:41:49;38.60;;;16.92;;
24713;SDS011;12820;51.580;5.010;2023-11-21T06:46:51;39.67;;;19.30;;
24713;SDS011;12820;51.580;5.010;2023-11-21T06:51:54;41.58;;;19.00;;
24713;SDS011;12820;51.580;5.010;2023-11-21T06:56:57;47.85;;;19.13;;
24713;SDS011;12820;51.580;5.010;2023-11-21T07:01:59;42.83;;;19.63;;
24713;SDS011;12820;51.580;5.010;2023-11-21T07:07:02;44.30;;;18.25;;
24713;SDS011;12820;51.580;5.010;2023-11-21T07:12:05;47.30;;;19.75;;
24713;SDS011;12820;51.580;5.010;2023-11-21T07:17:09;42.28;;;20.10;;
24713;SDS011;12820;51.580;5.010;2023-11-21T07:22:11;41.33;;;18.88;;
24713;SDS011;12820;51.580;5.010;2023-11-21T07:27:16;49.00;;;19.25;;
24713;SDS011;12820;51.580;5.010;2023-11-21T07:32:18;42.80;;;18.02;;
24713;SDS011;12820;51.580;5.010;2023-11-21T07:37:21;45.63;;;19.95;;
24713;SDS011;12820;51.580;5.010;2023-11-21T07:42:23;44.47;;;17.90;;
24713;SDS011;12820;51.580;5.010;2023-11-21T07:47:26;42.58;;;20.30;;
24713;SDS011;12820;51.580;5.010;2023-11-21T07:52:29;42.22;;;18.90;;
24713;SDS011;12820;51.580;5.010;2023-11-21T07:57:32;47.30;;;18.38;;
24713;SDS011;12820;51.580;5.010;2023-11-21T08:02:34;34.70;;;16.45;;
24713;SDS011;12820;51.580;5.010;2023-11-21T08:07:37;44.22;;;19.40;;
24713;SDS011;12820;51.580;5.010;2023-11-21T08:12:39;42.53;;;17.98;;
24713;SDS011;12820;51.580;5.010;2023-11-21T08:17:41;36.28;;;16.10;;
24713;SDS011;12820;51.580;5.010;2023-11-21T08:22:43;62.88;;;20.25;;
24713;SDS011;12820;51.580;5.010;2023-11-21T08:27:46;46.78;;;19.02;;
24713;SDS011;12820;51.580;5.010;2023-11-21T08:32:48;53.30;;;21.05;;
24713;SDS011;12820;51.580;5.010;2023-11-21T08:37:51;55.17;;;21.75;;
24713;SDS011;12820;51.580;5.010;2023-11-21T08:42:54;58.30;;;23.35;;
24713;SDS011;12820;51.580;5.010;2023-11-21T08:47:57;60.25;;;25.70;;
24713;SDS011;12820;51.580;5.010;2023-11-21T08:52:59;68.75;;;29.60;;
24713;SDS011;12820;51.580;5.010;2023-11-21T08:58:01;45.35;;;21.63;;
24713;SDS011;12820;51.580;5.010;2023-11-21T09:03:04;42.00;;;19.05;;
24713;SDS011;12820;51.580;5.010;2023-11-21T09:08:10;46.08;;;19.05;;
24713;SDS011;12820;51.580;5.010;2023-11-21T09:13:12;39.63;;;16.00;;
24713;SDS011;12820;51.580;5.010;2023-11-21T09:18:15;35.30;;;16.45;;
24713;SDS011;12820;51.580;5.010;2023-11-21T09:23:17;37.58;;;15.80;;
24713;SDS011;12820;51.580;5.010;2023-11-21T09:28:19;33.00;;;14.90;;
24713;SDS011;12820;51.580;5.010;2023-11-21T09:33:21;28.85;;;14.02;;
24713;SDS011;12820;51.580;5.010;2023-11-21T09:38:24;26.38;;;13.45;;
24713;SDS011;12820;51.580;5.010;2023-11-21T09:43:26;34.90;;;12.95;;
24713;SDS011;12820;51.580;5.010;2023-11-21T09:48:31;27.92;;;13.02;;
24713;SDS011;12820;51.580;5.010;2023-11-21T09:53:35;28.48;;;14.18;;
24713;SDS011;12820;51.580;5.010;2023-11-21T09:58:39;25.60;;;12.45;;
24713;SDS011;12820;51.580;5.010;2023-11-21T10:03:42;20.77;;;10.75;;
24713;SDS011;12820;51.580;5.010;2023-11-21T10:08:45;18.70;;;8.93;;
24713;SDS011;12820;51.580;5.010;2023-11-21T10:13:56;14.05;;;8.27;;
24713;SDS011;12820;51.580;5.010;2023-11-21T10:19:02;17.65;;;8.95;;
24713;SDS011;12820;51.580;5.010;2023-11-21T10:24:12;16.47;;;9.77;;
24713;SDS011;12820;51.580;5.010;2023-11-21T10:29:14;17.75;;;9.45;;
24713;SDS011;12820;51.580;5.010;2023-11-21T10:34:20;18.00;;;8.68;;
24713;SDS011;12820;51.580;5.010;2023-11-21T10:39:23;17.55;;;8.77;;
24713;SDS011;12820;51.580;5.010;2023-11-21T10:44:29;15.20;;;8.68;;
24713;SDS011;12820;51.580;5.010;2023-11-21T10:49:31;13.13;;;7.97;;
24713;SDS011;12820;51.580;5.010;2023-11-21T10:54:34;17.08;;;8.70;;
24713;SDS011;12820;51.580;5.010;2023-11-21T10:59:38;12.43;;;7.03;;
24713;SDS011;12820;51.580;5.010;2023-11-21T11:04:40;14.27;;;8.23;;
24713;SDS011;12820;51.580;5.010;2023-11-21T11:09:43;12.10;;;7.18;;
24713;SDS011;12820;51.580;5.010;2023-11-21T11:14:48;12.10;;;6.82;;
24713;SDS011;12820;51.580;5.010;2023-11-21T11:19:50;12.93;;;6.97;;
24713;SDS011;12820;51.580;5.010;2023-11-21T11:30:20;10.45;;;5.82;;
24713;SDS011;12820;51.580;5.010;2023-11-21T11:36:02;8.02;;;4.82;;
24713;SDS011;12820;51.580;5.010;2023-11-21T11:41:09;11.27;;;5.22;;
24713;SDS011;12820;51.580;5.010;2023-11-21T11:46:12;12.32;;;5.68;;
24713;SDS011;12820;51.580;5.010;2023-11-21T11:51:17;10.95;;;5.90;;
24713;SDS011;12820;51.580;5.010;2023-11-21T12:01:32;9.30;;;5.15;;
24713;SDS011;12820;51.580;5.010;2023-11-21T12:06:35;11.30;;;6.95;;
24713;SDS011;12820;51.580;5.010;2023-11-21T12:11:37;13.27;;;7.80;;
24713;SDS011;12820;51.580;5.010;2023-11-21T12:16:39;14.07;;;7.90;;
24713;SDS011;12820;51.580;5.010;2023-11-21T12:21:42;13.45;;;7.90;;
24713;SDS011;12820;51.580;5.010;2023-11-21T12:26:46;17.52;;;9.02;;
24713;SDS011;12820;51.580;5.010;2023-11-21T12:31:48;13.88;;;6.68;;
24713;SDS011;12820;51.580;5.010;2023-11-21T12:36:51;13.25;;;7.30;;
24713;SDS011;12820;51.580;5.010;2023-11-21T12:41:57;10.63;;;6.60;;
24713;SDS011;12820;51.580;5.010;2023-11-21T12:46:59;14.90;;;8.68;;
24713;SDS011;12820;51.580;5.010;2023-11-21T12:52:01;13.75;;;7.20;;
24713;SDS011;12820;51.580;5.010;2023-11-21T12:57:05;10.75;;;6.85;;
24713;SDS011;12820;51.580;5.010;2023-11-21T13:02:12;11.07;;;6.40;;
24713;SDS011;12820;51.580;5.010;2023-11-21T13:07:16;16.90;;;7.65;;
24713;SDS011;12820;51.580;5.010;2023-11-21T13:12:23;18.15;;;8.77;;
24713;SDS011;12820;51.580;5.010;2023-11-21T13:17:27;17.25;;;7.85;;
24713;SDS011;12820;51.580;5.010;2023-11-21T13:22:29;15.43;;;8.48;;
24713;SDS011;12820;51.580;5.010;2023-11-21T13:27:32;18.30;;;8.97;;
24713;SDS011;12820;51.580;5.010;2023-11-21T13:32:36;19.73;;;10.32;;
24713;SDS011;12820;51.580;5.010;2023-11-21T13:37:38;18.55;;;10.50;;
24713;SDS011;12820;51.580;5.010;2023-11-21T13:42:40;21.23;;;11.35;;
24713;SDS011;12820;51.580;5.010;2023-11-21T13:47:45;16.80;;;9.45;;
24713;SDS011;12820;51.580;5.010;2023-11-21T13:52:47;19.92;;;10.48;;
24713;SDS011;12820;51.580;5.010;2023-11-21T13:57:49;18.55;;;10.45;;
24713;SDS011;12820;51.580;5.010;2023-11-21T14:02:54;20.20;;;10.73;;
24713;SDS011;12820;51.580;5.010;2023-11-21T14:07:58;19.08;;;10.40;;
24713;SDS011;12820;51.580;5.010;2023-11-21T14:13:07;18.33;;;9.57;;
24713;SDS011;12820;51.580;5.010;2023-11-21T14:18:09;19.23;;;10.23;;
24713;SDS011;12820;51.580;5.010;2023-11-21T14:23:16;20.90;;;10.98;;
24713;SDS011;12820;51.580;5.010;2023-11-21T14:28:20;19.15;;;9.82;;
24713;SDS011;12820;51.580;5.010;2023-11-21T14:33:22;20.60;;;10.27;;
24713;SDS011;12820;51.580;5.010;2023-11-21T14:38:24;15.82;;;8.27;;
24713;SDS011;12820;51.580;5.010;2023-11-21T14:43:26;20.08;;;10.07;;
24713;SDS011;12820;51.580;5.010;2023-11-21T14:48:31;18.52;;;10.52;;
24713;SDS011;12820;51.580;5.010;2023-11-21T14:54:00;20.38;;;10.57;;
24713;SDS011;12820;51.580;5.010;2023-11-21T14:59:08;19.70;;;10.13;;
24713;SDS011;12820;51.580;5.010;2023-11-21T15:04:19;21.67;;;11.57;;
24713;SDS011;12820;51.580;5.010;2023-11-21T15:09:38;18.45;;;10.13;;
24713;SDS011;12820;51.580;5.010;2023-11-21T15:14:45;19.75;;;10.13;;
24713;SDS011;12820;51.580;5.010;2023-11-21T15:19:50;21.17;;;10.40;;
24713;SDS011;12820;51.580;5.010;2023-11-21T15:24:52;22.08;;;11.07;;
24713;SDS011;12820;51.580;5.010;2023-11-21T15:29:55;24.48;;;12.45;;
24713;SDS011;12820;51.580;5.010;2023-11-21T15:34:58;23.10;;;13.20;;
24713;SDS011;12820;51.580;5.010;2023-11-21T15:40:00;26.25;;;14.10;;
24713;SDS011;12820;51.580;5.010;2023-11-21T15:45:03;27.88;;;14.95;;
24713;SDS011;12820;51.580;5.010;2023-11-21T15:50:08;27.85;;;13.00;;
24713;SDS011;12820;51.580;5.010;2023-11-21T15:55:12;23.58;;;12.48;;
24713;SDS011;12820;51.580;5.010;2023-11-21T16:00:15;31.20;;;14.77;;
24713;SDS011;12820;51.580;5.010;2023-11-21T16:05:22;25.83;;;12.02;;
24713;SDS011;12820;51.580;5.010;2023-11-21T16:10:27;21.70;;;10.38;;
24713;SDS011;12820;51.580;5.010;2023-11-21T16:15:30;19.90;;;10.77;;
24713;SDS011;12820;51.580;5.010;2023-11-21T16:20:32;22.20;;;10.25;;
24713;SDS011;12820;51.580;5.010;2023-11-21T16:25:35;20.98;;;9.75;;
24713;SDS011;12820;51.580;5.010;2023-11-21T16:30:38;25.10;;;11.77;;
24713;SDS011;12820;51.580;5.010;2023-11-21T16:35:42;26.77;;;12.48;;
24713;SDS011;12820;51.580;5.010;2023-11-21T16:40:44;27.00;;;12.50;;
24713;SDS011;12820;51.580;5.010;2023-11-21T16:45:47;23.27;;;11.43;;
24713;SDS011;12820;51.580;5.010;2023-11-21T16:50:53;29.80;;;13.82;;
24713;SDS011;12820;51.580;5.010;2023-11-21T16:55:55;28.63;;;12.70;;
24713;SDS011;12820;51.580;5.010;2023-11-21T17:00:58;33.80;;;14.70;;
24713;SDS011;12820;51.580;5.010;2023-11-21T17:06:00;35.85;;;16.45;;
24713;SDS011;12820;51.580;5.010;2023-11-21T17:11:02;41.75;;;18.67;;
24713;SDS011;12820;51.580;5.010;2023-11-21T17:16:06;36.78;;;16.30;;
24713;SDS011;12820;51.580;5.010;2023-11-21T17:21:08;34.30;;;16.92;;
24713;SDS011;12820;51.580;5.010;2023-11-21T17:26:22;33.70;;;14.50;;
24713;SDS011;12820;51.580;5.010;2023-11-21T17:31:25;29.20;;;15.15;;
24713;SDS011;12820;51.580;5.010;2023-11-21T17:36:27;27.65;;;14.43;;
24713;SDS011;12820;51.580;5.010;2023-11-21T17:41:29;28.30;;;15.70;;
24713;SDS011;12820;51.580;5.010;2023-11-21T17:46:31;25.23;;;14.63;;
24713;SDS011;12820;51.580;5.010;2023-11-21T17:51:38;27.60;;;15.98;;
24713;SDS011;12820;51.580;5.010;2023-11-21T17:56:41;22.73;;;15.15;;
24713;SDS011;12820;51.580;5.010;2023-11-21T18:01:45;24.15;;;14.85;;
24713;SDS011;12820;51.580;5.010;2023-11-21T18:06:48;21.50;;;14.93;;
24713;SDS011;12820;51.580;5.010;2023-11-21T18:11:51;22.55;;;14.43;;
24713;SDS011;12820;51.580;5.010;2023-11-21T18:16:53;24.05;;;15.00;;
24713;SDS011;12820;51.580;5.010;2023-11-21T18:21:56;25.13;;;15.38;;
24713;SDS011;12820;51.580;5.010;2023-11-21T18:27:04;23.33;;;15.20;;
24713;SDS011;12820;51.580;5.010;2023-11-21T18:32:07;22.98;;;15.25;;
24713;SDS011;12820;51.580;5.010;2023-11-21T18:37:12;23.52;;;14.90;;
24713;SDS011;12820;51.580;5.010;2023-11-21T18:42:14;23.38;;;15.63;;
24713;SDS011;12820;51.580;5.010;2023-11-21T18:47:16;24.83;;;14.88;;
24713;SDS011;12820;51.580;5.010;2023-11-21T18:52:18;24.23;;;15.57;;
24713;SDS011;12820;51.580;5.010;2023-11-21T18:57:20;20.20;;;13.93;;
24713;SDS011;12820;51.580;5.010;2023-11-21T19:02:23;23.55;;;15.35;;
24713;SDS011;12820;51.580;5.010;2023-11-21T19:07:25;27.67;;;16.17;;
24713;SDS011;12820;51.580;5.010;2023-11-21T19:12:32;24.38;;;15.52;;
24713;SDS011;12820;51.580;5.010;2023-11-21T19:17:38;26.38;;;16.10;;
24713;SDS011;12820;51.580;5.010;2023-11-21T19:22:41;27.90;;;16.55;;
24713;SDS011;12820;51.580;5.010;2023-11-21T19:27:43;26.67;;;16.50;;
24713;SDS011;12820;51.580;5.010;2023-11-21T19:32:46;25.80;;;16.88;;
24713;SDS011;12820;51.580;5.010;2023-11-21T19:37:48;24.65;;;15.32;;
24713;SDS011;12820;51.580;5.010;2023-11-21T19:42:50;25.80;;;16.83;;
24713;SDS011;12820;51.580;5.010;2023-11-21T19:47:53;26.35;;;16.25;;
24713;SDS011;12820;51.580;5.010;2023-11-21T19:52:55;27.33;;;16.42;;
24713;SDS011;12820;51.580;5.010;2023-11-21T19:57:58;26.85;;;15.45;;
24713;SDS011;12820;51.580;5.010;2023-11-21T20:03:02;26.85;;;15.73;;
24713;SDS011;12820;51.580;5.010;2023-11-21T20:08:05;27.05;;;16.42;;
24713;SDS011;12820;51.580;5.010;2023-11-21T20:13:08;28.80;;;16.92;;
24713;SDS011;12820;51.580;5.010;2023-11-21T20:18:12;27.85;;;17.05;;
24713;SDS011;12820;51.580;5.010;2023-11-21T20:23:14;24.80;;;15.40;;
24713;SDS011;12820;51.580;5.010;2023-11-21T20:28:17;28.05;;;17.35;;
24713;SDS011;12820;51.580;5.010;2023-11-21T20:33:20;30.90;;;17.30;;
24713;SDS011;12820;51.580;5.010;2023-11-21T20:38:22;27.23;;;16.85;;
24713;SDS011;12820;51.580;5.010;2023-11-21T20:43:25;28.25;;;15.93;;
24713;SDS011;12820;51.580;5.010;2023-11-21T20:48:28;32.42;;;17.38;;
24713;SDS011;12820;51.580;5.010;2023-11-21T20:53:30;30.65;;;17.95;;
24713;SDS011;12820;51.580;5.010;2023-11-21T20:58:34;31.27;;;18.20;;
24713;SDS011;12820;51.580;5.010;2023-11-21T21:03:36;29.05;;;17.75;;
24713;SDS011;12820;51.580;5.010;2023-11-21T21:08:54;31.33;;;17.02;;
24713;SDS011;12820;51.580;5.010;2023-11-21T21:14:02;32.88;;;18.83;;
24713;SDS011;12820;51.580;5.010;2023-11-21T21:19:07;31.80;;;18.23;;
24713;SDS011;12820;51.580;5.010;2023-11-21T21:24:09;28.05;;;16.20;;
24713;SDS011;12820;51.580;5.010;2023-11-21T21:29:12;33.03;;;17.48;;
24713;SDS011;12820;51.580;5.010;2023-11-21T21:34:14;33.05;;;18.02;;
24713;SDS011;12820;51.580;5.010;2023-11-21T21:39:18;29.33;;;17.20;;
24713;SDS011;12820;51.580;5.010;2023-11-21T21:44:21;27.75;;;15.93;;
24713;SDS011;12820;51.580;5.010;2023-11-21T21:49:24;31.88;;;17.35;;
24713;SDS011;12820;51.580;5.010;2023-11-21T21:54:26;34.47;;;16.63;;
24713;SDS011;12820;51.580;5.010;2023-11-21T21:59:28;31.50;;;17.67;;
24713;SDS011;12820;51.580;5.010;2023-11-21T22:04:31;29.10;;;16.45;;
24713;SDS011;12820;51.580;5.010;2023-11-21T22:09:36;34.42;;;16.38;;
24713;SDS011;12820;51.580;5.010;2023-11-21T22:14:39;26.70;;;15.82;;
24713;SDS011;12820;51.580;5.010;2023-11-21T22:19:41;28.70;;;16.92;;
24713;SDS011;12820;51.580;5.010;2023-11-21T22:24:43;28.52;;;15.45;;
24713;SDS011;12820;51.580;5.010;2023-11-21T22:29:45;31.55;;;16.73;;
24713;SDS011;12820;51.580;5.010;2023-11-21T22:34:48;32.03;;;17.52;;
24713;SDS011;12820;51.580;5.010;2023-11-21T22:39:50;28.40;;;16.40;;
24713;SDS011;12820;51.580;5.010;2023-11-21T22:44:53;31.40;;;17.38;;
24713;SDS011;12820;51.580;5.010;2023-11-21T22:49:56;29.95;;;16.52;;
24713;SDS011;12820;51.580;5.010;2023-11-21T22:54:59;28.58;;;16.92;;
24713;SDS011;12820;51.580;5.010;2023-11-21T23:00:02;34.03;;;17.67;;
24713;SDS011;12820;51.580;5.010;2023-11-21T23:05:13;29.70;;;15.60;;
24713;SDS011;12820;51.580;5.010;2023-11-21T23:10:17;31.05;;;17.33;;
24713;SDS011;12820;51.580;5.010;2023-11-21T23:15:20;31.10;;;16.58;;
24713;SDS011;12820;51.580;5.010;2023-11-21T23:20:22;34.88;;;18.17;;
24713;SDS011;12820;51.580;5.010;2023-11-21T23:25:25;31.38;;;17.35;;
24713;SDS011;12820;51.580;5.010;2023-11-21T23:30:27;33.08;;;17.92;;
24713;SDS011;12820;51.580;5.010;2023-11-21T23:35:31;34.00;;;17.52;;
24713;SDS011;12820;51.580;5.010;2023-11-21T23:40:34;32.00;;;16.92;;
24713;SDS011;12820;51.580;5.010;2023-11-21T23:45:36;31.45;;;17.85;;
24713;SDS011;12820;51.580;5.010;2023-11-21T23:50:40;30.15;;;16.98;;
24713;SDS011;12820;51.580;5.010;2023-11-21T23:55:42;31.45;;;17.55;;
